CFG8TA LEPA-EDDF
Flight info
| Callsign | CFG8TA |
|---|---|
| Flight time | N/A |
| Altitude | 32000 |
| Route | MEROS DCT LAPIT DCT CHELY DCT LUMAS DCT MAXIR DCT LUSOL DCT BODRU DCT OKTET DCT IRMAR/N0448F360 DCT KINES DCT VANAS DCT MOBLO DCT UBIMA DCT SOSAL DCT KORED DCT BERSU N871 DITON/N0448F370 DCT LADOL/N0447F360 T163 EMPAX EMPAX5D |
| Aircraft | A320/M-SDE1E3FGHIJ1LORVWXYZ/LB1 |
Departure
| Time | 2026-05-08 06:53 |
|---|---|
| Airport | Palma de Mallorca Airport (LEPA) |
Arrival
| Time | N/A |
|---|---|
| Airport | Frankfurt Main Airport (EDDF) |
| Time | Latitude | Longitude | Altitude | Speed | Heading |
|---|---|---|---|---|---|
| 2026-05-08 06:14 | 39.55018 | 2.73494 | 35 ft | 0 kts | 164° |
| 2026-05-08 06:39 | 39.55035 | 2.73487 | 36 ft | 4 kts | 148° |
| 2026-05-08 06:40 | 39.55051 | 2.73464 | 35 ft | 4 kts | 100° |
| 2026-05-08 06:40 | 39.55048 | 2.73432 | 36 ft | 4 kts | 63° |
| 2026-05-08 06:40 | 39.55044 | 2.73421 | 36 ft | 0 kts | 58° |
| 2026-05-08 06:46 | 39.55063 | 2.73460 | 35 ft | 10 kts | 57° |
| 2026-05-08 06:46 | 39.55118 | 2.73575 | 36 ft | 20 kts | 58° |
| 2026-05-08 06:47 | 39.55182 | 2.73708 | 36 ft | 13 kts | 71° |
| 2026-05-08 06:47 | 39.55145 | 2.73768 | 36 ft | 8 kts | 149° |
| 2026-05-08 06:47 | 39.55103 | 2.73801 | 36 ft | 6 kts | 149° |
| 2026-05-08 06:47 | 39.55069 | 2.73827 | 36 ft | 5 kts | 149° |
| 2026-05-08 06:48 | 39.55043 | 2.73848 | 36 ft | 4 kts | 148° |
| 2026-05-08 06:48 | 39.55007 | 2.73876 | 36 ft | 10 kts | 149° |
| 2026-05-08 06:48 | 39.54917 | 2.73946 | 34 ft | 18 kts | 149° |
| 2026-05-08 06:48 | 39.54840 | 2.73993 | 36 ft | 9 kts | 171° |
| 2026-05-08 06:49 | 39.54795 | 2.73959 | 35 ft | 7 kts | 224° |
| 2026-05-08 06:49 | 39.54758 | 2.73963 | 36 ft | 5 kts | 151° |
| 2026-05-08 06:49 | 39.54729 | 2.73973 | 36 ft | 5 kts | 181° |
| 2026-05-08 06:49 | 39.54697 | 2.73936 | 36 ft | 8 kts | 237° |
| 2026-05-08 06:50 | 39.54658 | 2.73852 | 35 ft | 13 kts | 239° |
| 2026-05-08 06:50 | 39.54602 | 2.73729 | 35 ft | 18 kts | 238° |
| 2026-05-08 06:50 | 39.54527 | 2.73573 | 34 ft | 23 kts | 238° |
| 2026-05-08 06:50 | 39.54438 | 2.73385 | 34 ft | 26 kts | 239° |
| 2026-05-08 06:51 | 39.54350 | 2.73197 | 35 ft | 23 kts | 237° |
| 2026-05-08 06:51 | 39.54274 | 2.73048 | 35 ft | 14 kts | 229° |
| 2026-05-08 06:51 | 39.54206 | 2.73034 | 36 ft | 8 kts | 133° |
| 2026-05-08 06:51 | 39.54186 | 2.73099 | 36 ft | 7 kts | 111° |
| 2026-05-08 06:52 | 39.54174 | 2.73151 | 35 ft | 6 kts | 102° |
| 2026-05-08 06:52 | 39.54167 | 2.73270 | 35 ft | 17 kts | 73° |
| 2026-05-08 06:52 | 39.54201 | 2.73334 | 35 ft | 0 kts | 57° |
| 2026-05-08 06:52 | 39.54222 | 2.73377 | 35 ft | 31 kts | 58° |
| 2026-05-08 06:53 | 39.54470 | 2.73897 | 33 ft | 101 kts | 58° |
| 2026-05-08 06:53 | 39.54944 | 2.74891 | 32 ft | 156 kts | 58° |
| 2026-05-08 06:53 | 39.55541 | 2.76147 | 455 ft | 166 kts | 59° |
| 2026-05-08 06:53 | 39.56139 | 2.77447 | 1099 ft | 169 kts | 59° |
| 2026-05-08 06:54 | 39.56739 | 2.78769 | 1765 ft | 171 kts | 59° |
| 2026-05-08 06:54 | 39.57386 | 2.80197 | 2042 ft | 195 kts | 60° |
| 2026-05-08 06:54 | 39.58109 | 2.81791 | 2379 ft | 214 kts | 60° |
| 2026-05-08 06:54 | 39.58882 | 2.83474 | 2883 ft | 225 kts | 59° |
| 2026-05-08 06:55 | 39.59683 | 2.85200 | 3737 ft | 222 kts | 59° |
| 2026-05-08 06:55 | 39.60477 | 2.86917 | 4522 ft | 223 kts | 60° |
| 2026-05-08 06:55 | 39.61262 | 2.88653 | 5274 ft | 224 kts | 60° |
| 2026-05-08 06:55 | 39.62050 | 2.90415 | 5978 ft | 227 kts | 60° |
| 2026-05-08 06:56 | 39.62854 | 2.92210 | 6586 ft | 238 kts | 60° |
| 2026-05-08 06:56 | 39.63708 | 2.94172 | 6898 ft | 261 kts | 61° |
| 2026-05-08 06:56 | 39.64618 | 2.96296 | 7410 ft | 275 kts | 61° |
| 2026-05-08 06:56 | 39.65562 | 2.98495 | 8163 ft | 281 kts | 61° |
| 2026-05-08 06:57 | 39.66519 | 3.00723 | 8947 ft | 285 kts | 61° |
| 2026-05-08 06:57 | 39.67490 | 3.02977 | 9721 ft | 288 kts | 61° |
| 2026-05-08 06:57 | 39.68480 | 3.05269 | 10357 ft | 298 kts | 60° |
| 2026-05-08 06:57 | 39.69535 | 3.07707 | 10570 ft | 321 kts | 60° |
| 2026-05-08 06:58 | 39.70669 | 3.10326 | 10785 ft | 343 kts | 60° |
| 2026-05-08 06:58 | 39.71849 | 3.13066 | 11322 ft | 352 kts | 60° |
| 2026-05-08 06:58 | 39.73037 | 3.15826 | 11985 ft | 356 kts | 60° |
| 2026-05-08 06:58 | 39.74257 | 3.18660 | 12378 ft | 366 kts | 60° |
| 2026-05-08 06:59 | 39.75507 | 3.21558 | 13056 ft | 367 kts | 60° |
| 2026-05-08 06:59 | 39.76762 | 3.24473 | 13734 ft | 371 kts | 60° |
| 2026-05-08 06:59 | 39.78210 | 3.27269 | 14315 ft | 375 kts | 49° |
| 2026-05-08 06:59 | 39.79925 | 3.29844 | 14902 ft | 379 kts | 48° |
| 2026-05-08 07:00 | 39.81665 | 3.32445 | 15479 ft | 383 kts | 48° |
| 2026-05-08 07:00 | 39.83421 | 3.35071 | 16057 ft | 387 kts | 48° |
| 2026-05-08 07:00 | 39.85200 | 3.37731 | 16617 ft | 391 kts | 48° |
| 2026-05-08 07:00 | 39.86989 | 3.40412 | 17155 ft | 395 kts | 48° |
| 2026-05-08 07:01 | 39.88795 | 3.43127 | 17689 ft | 399 kts | 49° |
| 2026-05-08 07:01 | 39.90617 | 3.45870 | 18215 ft | 402 kts | 49° |
| 2026-05-08 07:01 | 39.92453 | 3.48642 | 18732 ft | 406 kts | 49° |
| 2026-05-08 07:01 | 39.94305 | 3.51442 | 19252 ft | 410 kts | 48° |
| 2026-05-08 07:02 | 39.96173 | 3.54268 | 19757 ft | 413 kts | 48° |
| 2026-05-08 07:02 | 39.98059 | 3.57115 | 20250 ft | 417 kts | 48° |
| 2026-05-08 07:02 | 39.99962 | 3.59990 | 20734 ft | 421 kts | 48° |
| 2026-05-08 07:02 | 40.01884 | 3.62893 | 21220 ft | 424 kts | 48° |
| 2026-05-08 07:03 | 40.03814 | 3.65818 | 21687 ft | 427 kts | 47° |
| 2026-05-08 07:03 | 40.05763 | 3.68775 | 22140 ft | 431 kts | 47° |
| 2026-05-08 07:03 | 40.07724 | 3.71753 | 22562 ft | 434 kts | 47° |
| 2026-05-08 07:03 | 40.09670 | 3.74710 | 22954 ft | 437 kts | 47° |
| 2026-05-08 07:04 | 40.11657 | 3.77731 | 23339 ft | 440 kts | 47° |
| 2026-05-08 07:04 | 40.13660 | 3.80778 | 23728 ft | 443 kts | 47° |
| 2026-05-08 07:04 | 40.15673 | 3.83845 | 24085 ft | 446 kts | 47° |
| 2026-05-08 07:04 | 40.17704 | 3.86944 | 24445 ft | 449 kts | 47° |
| 2026-05-08 07:05 | 40.19742 | 3.90058 | 24806 ft | 452 kts | 47° |
| 2026-05-08 07:05 | 40.21795 | 3.93202 | 25163 ft | 454 kts | 47° |
| 2026-05-08 07:05 | 40.23857 | 3.96357 | 25504 ft | 456 kts | 47° |
| 2026-05-08 07:05 | 40.25927 | 3.99528 | 25839 ft | 459 kts | 47° |
| 2026-05-08 07:06 | 40.27977 | 4.02670 | 26156 ft | 461 kts | 47° |
| 2026-05-08 07:06 | 40.30063 | 4.05870 | 26478 ft | 463 kts | 47° |
| 2026-05-08 07:06 | 40.32156 | 4.09083 | 26783 ft | 465 kts | 47° |
| 2026-05-08 07:06 | 40.34257 | 4.12313 | 27087 ft | 466 kts | 47° |
| 2026-05-08 07:07 | 40.36364 | 4.15559 | 27383 ft | 468 kts | 47° |
| 2026-05-08 07:07 | 40.38480 | 4.18818 | 27666 ft | 470 kts | 47° |
| 2026-05-08 07:07 | 40.40608 | 4.22098 | 27944 ft | 472 kts | 47° |
| 2026-05-08 07:07 | 40.42741 | 4.25390 | 28218 ft | 474 kts | 47° |
| 2026-05-08 07:08 | 40.44878 | 4.28698 | 28484 ft | 476 kts | 47° |
| 2026-05-08 07:08 | 40.47166 | 4.31822 | 28734 ft | 474 kts | 38° |
| 2026-05-08 07:08 | 40.49782 | 4.34441 | 28969 ft | 472 kts | 29° |
| 2026-05-08 07:08 | 40.52659 | 4.36486 | 29191 ft | 469 kts | 20° |
| 2026-05-08 07:09 | 40.55720 | 4.37919 | 29427 ft | 466 kts | 11° |
| 2026-05-08 07:09 | 40.58688 | 4.38735 | 29624 ft | 464 kts | 6° |
| 2026-05-08 07:09 | 40.61881 | 4.39495 | 29835 ft | 466 kts | 6° |
| 2026-05-08 07:09 | 40.65065 | 4.40254 | 30118 ft | 465 kts | 6° |
| 2026-05-08 07:10 | 40.68207 | 4.41008 | 30409 ft | 464 kts | 6° |
| 2026-05-08 07:10 | 40.71383 | 4.41771 | 30694 ft | 463 kts | 6° |
| 2026-05-08 07:10 | 40.74592 | 4.42542 | 30985 ft | 462 kts | 6° |
| 2026-05-08 07:10 | 40.77760 | 4.43304 | 31261 ft | 462 kts | 6° |
| 2026-05-08 07:11 | 40.80873 | 4.44055 | 31534 ft | 461 kts | 6° |
| 2026-05-08 07:11 | 40.84023 | 4.44817 | 31806 ft | 460 kts | 6° |
| 2026-05-08 07:11 | 40.87174 | 4.45578 | 31974 ft | 460 kts | 6° |
| 2026-05-08 07:11 | 40.90306 | 4.46335 | 32010 ft | 457 kts | 6° |
| 2026-05-08 07:12 | 40.96560 | 4.47844 | 32008 ft | 456 kts | 6° |
| 2026-05-08 07:12 | 41.02794 | 4.49354 | 32008 ft | 455 kts | 6° |
| 2026-05-08 07:13 | 41.09024 | 4.50873 | 32008 ft | 455 kts | 6° |
| 2026-05-08 07:13 | 41.15252 | 4.52391 | 32007 ft | 455 kts | 6° |
| 2026-05-08 07:14 | 41.21482 | 4.53908 | 32005 ft | 455 kts | 6° |
| 2026-05-08 07:14 | 41.27712 | 4.55427 | 32003 ft | 455 kts | 6° |
| 2026-05-08 07:15 | 41.33926 | 4.56949 | 32004 ft | 454 kts | 6° |
| 2026-05-08 07:15 | 41.40146 | 4.58475 | 32004 ft | 454 kts | 6° |
| 2026-05-08 07:16 | 41.46360 | 4.60002 | 32008 ft | 454 kts | 6° |
| 2026-05-08 07:16 | 41.52573 | 4.61527 | 32003 ft | 454 kts | 6° |
| 2026-05-08 07:17 | 41.58738 | 4.63045 | 31994 ft | 453 kts | 6° |
| 2026-05-08 07:17 | 41.64933 | 4.64583 | 31996 ft | 453 kts | 6° |
| 2026-05-08 07:18 | 41.71120 | 4.66193 | 31995 ft | 454 kts | 10° |
| 2026-05-08 07:18 | 41.76985 | 4.69577 | 31978 ft | 467 kts | 27° |
| 2026-05-08 07:19 | 41.82551 | 4.74061 | 31991 ft | 466 kts | 27° |
| 2026-05-08 07:19 | 41.88112 | 4.78552 | 32003 ft | 466 kts | 27° |
| 2026-05-08 07:20 | 41.93681 | 4.83026 | 32008 ft | 466 kts | 27° |
| 2026-05-08 07:20 | 41.99242 | 4.87515 | 32013 ft | 466 kts | 27° |
| 2026-05-08 07:21 | 42.04798 | 4.92025 | 32014 ft | 466 kts | 28° |
| 2026-05-08 07:21 | 42.10356 | 4.96532 | 32013 ft | 466 kts | 28° |
| 2026-05-08 07:22 | 42.15913 | 5.01046 | 32012 ft | 466 kts | 28° |
| 2026-05-08 07:22 | 42.21459 | 5.05560 | 32010 ft | 466 kts | 28° |
| 2026-05-08 07:23 | 42.27006 | 5.10083 | 32013 ft | 466 kts | 28° |
| 2026-05-08 07:23 | 42.32549 | 5.14621 | 32012 ft | 466 kts | 29° |
| 2026-05-08 07:24 | 42.38095 | 5.19174 | 32018 ft | 466 kts | 29° |
| 2026-05-08 07:24 | 42.43605 | 5.23699 | 32018 ft | 466 kts | 29° |
| 2026-05-08 07:25 | 42.49136 | 5.28254 | 32015 ft | 465 kts | 29° |
| 2026-05-08 07:26 | 42.57421 | 5.35099 | 32005 ft | 464 kts | 29° |
| 2026-05-08 07:26 | 42.62940 | 5.39659 | 32005 ft | 464 kts | 29° |
| 2026-05-08 07:27 | 42.68460 | 5.44226 | 32007 ft | 464 kts | 29° |
| 2026-05-08 07:27 | 42.73985 | 5.48809 | 32007 ft | 465 kts | 30° |
| 2026-05-08 07:28 | 42.78575 | 5.52637 | 32011 ft | 465 kts | 30° |
| 2026-05-08 07:28 | 42.84986 | 5.57986 | 32009 ft | 465 kts | 30° |
| 2026-05-08 07:29 | 42.90503 | 5.62604 | 32008 ft | 465 kts | 30° |
| 2026-05-08 07:29 | 42.95131 | 5.66482 | 32011 ft | 466 kts | 30° |
| 2026-05-08 07:30 | 43.00609 | 5.71087 | 32013 ft | 465 kts | 30° |
| 2026-05-08 07:30 | 43.06121 | 5.75723 | 32012 ft | 465 kts | 30° |
| 2026-05-08 07:31 | 43.11624 | 5.80359 | 32009 ft | 465 kts | 30° |
| 2026-05-08 07:31 | 43.17136 | 5.85015 | 32010 ft | 465 kts | 31° |
| 2026-05-08 07:32 | 43.22642 | 5.89677 | 32012 ft | 465 kts | 31° |
| 2026-05-08 07:32 | 43.28143 | 5.94342 | 32014 ft | 465 kts | 31° |
| 2026-05-08 07:33 | 43.33644 | 5.99024 | 32011 ft | 465 kts | 31° |
| 2026-05-08 07:33 | 43.39385 | 6.03056 | 32007 ft | 463 kts | 17° |
| 2026-05-08 07:34 | 43.45689 | 6.04671 | 32007 ft | 461 kts | 2° |
| 2026-05-08 07:34 | 43.52052 | 6.05304 | 32008 ft | 462 kts | 3° |
| 2026-05-08 07:35 | 43.58476 | 6.05961 | 32088 ft | 466 kts | 3° |
| 2026-05-08 07:35 | 43.61721 | 6.06293 | 32290 ft | 467 kts | 3° |
| 2026-05-08 07:35 | 43.64960 | 6.06627 | 32529 ft | 467 kts | 3° |
| 2026-05-08 07:35 | 43.68205 | 6.06963 | 32772 ft | 467 kts | 3° |
| 2026-05-08 07:36 | 43.71444 | 6.07295 | 33023 ft | 467 kts | 2° |
| 2026-05-08 07:36 | 43.74676 | 6.07717 | 33269 ft | 467 kts | 7° |
| 2026-05-08 07:36 | 43.77845 | 6.08719 | 33511 ft | 468 kts | 17° |
| 2026-05-08 07:36 | 43.80876 | 6.10365 | 33750 ft | 469 kts | 25° |
| 2026-05-08 07:37 | 43.83802 | 6.12360 | 33994 ft | 468 kts | 25° |
| 2026-05-08 07:37 | 43.86726 | 6.14358 | 34233 ft | 468 kts | 25° |
| 2026-05-08 07:37 | 43.89647 | 6.16352 | 34474 ft | 468 kts | 25° |
| 2026-05-08 07:37 | 43.92529 | 6.18318 | 34700 ft | 467 kts | 25° |
| 2026-05-08 07:38 | 43.95488 | 6.20338 | 34924 ft | 468 kts | 25° |
| 2026-05-08 07:38 | 43.98368 | 6.22309 | 35137 ft | 467 kts | 25° |
| 2026-05-08 07:38 | 44.01283 | 6.24307 | 35345 ft | 467 kts | 25° |
| 2026-05-08 07:38 | 44.04198 | 6.26310 | 35545 ft | 467 kts | 25° |
| 2026-05-08 07:39 | 44.07110 | 6.28310 | 35730 ft | 467 kts | 25° |
| 2026-05-08 07:39 | 44.10025 | 6.30311 | 35909 ft | 467 kts | 25° |
| 2026-05-08 07:39 | 44.12942 | 6.32313 | 36025 ft | 467 kts | 25° |
| 2026-05-08 07:40 | 44.18773 | 6.36328 | 36052 ft | 468 kts | 25° |
| 2026-05-08 07:40 | 44.24612 | 6.40365 | 36051 ft | 468 kts | 25° |
| 2026-05-08 07:41 | 44.30442 | 6.44395 | 36051 ft | 468 kts | 25° |
| 2026-05-08 07:41 | 44.36268 | 6.48433 | 36055 ft | 467 kts | 25° |
| 2026-05-08 07:42 | 44.42067 | 6.52471 | 36049 ft | 467 kts | 25° |
| 2026-05-08 07:42 | 44.47894 | 6.56533 | 36054 ft | 467 kts | 25° |
| 2026-05-08 07:43 | 44.53717 | 6.60587 | 36051 ft | 467 kts | 25° |
| 2026-05-08 07:43 | 44.59498 | 6.64628 | 36057 ft | 467 kts | 25° |
| 2026-05-08 07:44 | 44.65320 | 6.68710 | 36051 ft | 467 kts | 25° |
| 2026-05-08 07:44 | 44.71142 | 6.72798 | 36055 ft | 468 kts | 25° |
| 2026-05-08 07:45 | 44.76998 | 6.76758 | 36059 ft | 466 kts | 19° |
| 2026-05-08 07:45 | 44.83294 | 6.78655 | 36056 ft | 462 kts | 0° |
| 2026-05-08 07:46 | 44.89696 | 6.78404 | 36056 ft | 460 kts | 355° |
| 2026-05-08 07:46 | 44.96098 | 6.77982 | 36056 ft | 461 kts | 355° |
| 2026-05-08 07:47 | 45.02493 | 6.77563 | 36061 ft | 461 kts | 355° |
| 2026-05-08 07:47 | 45.08923 | 6.77146 | 36060 ft | 462 kts | 355° |
| 2026-05-08 07:48 | 45.15337 | 6.76727 | 36064 ft | 462 kts | 355° |
| 2026-05-08 07:48 | 45.21750 | 6.76293 | 36064 ft | 461 kts | 355° |
| 2026-05-08 07:49 | 45.28163 | 6.75853 | 36066 ft | 461 kts | 355° |
| 2026-05-08 07:49 | 45.34582 | 6.75418 | 36067 ft | 461 kts | 355° |
| 2026-05-08 07:50 | 45.40991 | 6.75009 | 36071 ft | 462 kts | 355° |
| 2026-05-08 07:50 | 45.47370 | 6.74590 | 36071 ft | 462 kts | 355° |
| 2026-05-08 07:51 | 45.53796 | 6.74139 | 36071 ft | 461 kts | 355° |
| 2026-05-08 07:51 | 45.60218 | 6.73696 | 36071 ft | 461 kts | 355° |
| 2026-05-08 07:52 | 45.66630 | 6.73258 | 36071 ft | 461 kts | 355° |
| 2026-05-08 07:52 | 45.73003 | 6.72826 | 36072 ft | 462 kts | 355° |
| 2026-05-08 07:53 | 45.79417 | 6.72383 | 36077 ft | 462 kts | 355° |
| 2026-05-08 07:53 | 45.85837 | 6.71936 | 36075 ft | 461 kts | 355° |
| 2026-05-08 07:54 | 45.92255 | 6.71501 | 36077 ft | 462 kts | 355° |
| 2026-05-08 07:54 | 45.98676 | 6.71067 | 36077 ft | 462 kts | 355° |
| 2026-05-08 07:55 | 46.05094 | 6.70632 | 36077 ft | 462 kts | 355° |
| 2026-05-08 07:55 | 46.11528 | 6.70393 | 36080 ft | 463 kts | 3° |
| 2026-05-08 07:56 | 46.17793 | 6.72283 | 36079 ft | 464 kts | 15° |
| 2026-05-08 07:56 | 46.24000 | 6.74917 | 36075 ft | 464 kts | 15° |
| 2026-05-08 07:57 | 46.30206 | 6.77550 | 36075 ft | 464 kts | 15° |
| 2026-05-08 07:57 | 46.36404 | 6.80172 | 36072 ft | 464 kts | 15° |
| 2026-05-08 07:58 | 46.42608 | 6.82799 | 36074 ft | 464 kts | 15° |
| 2026-05-08 07:58 | 46.48812 | 6.85448 | 36073 ft | 464 kts | 15° |
| 2026-05-08 07:59 | 46.54743 | 6.89130 | 36073 ft | 466 kts | 32° |
| 2026-05-08 07:59 | 46.59579 | 6.95241 | 36074 ft | 466 kts | 51° |
| 2026-05-08 08:00 | 46.63655 | 7.02558 | 36069 ft | 466 kts | 51° |
| 2026-05-08 08:00 | 46.67731 | 7.09910 | 36065 ft | 466 kts | 51° |
| 2026-05-08 08:01 | 46.71797 | 7.17274 | 36067 ft | 466 kts | 51° |
| 2026-05-08 08:01 | 46.75858 | 7.24646 | 36066 ft | 466 kts | 51° |
| 2026-05-08 08:02 | 46.79920 | 7.32041 | 36065 ft | 467 kts | 51° |
| 2026-05-08 08:02 | 46.83977 | 7.39451 | 36072 ft | 467 kts | 51° |
| 2026-05-08 08:03 | 46.88012 | 7.46822 | 36065 ft | 467 kts | 51° |
| 2026-05-08 08:03 | 46.92056 | 7.54245 | 36063 ft | 467 kts | 51° |
| 2026-05-08 08:04 | 46.96095 | 7.61691 | 36063 ft | 467 kts | 52° |
| 2026-05-08 08:04 | 47.00122 | 7.69144 | 36064 ft | 466 kts | 52° |
| 2026-05-08 08:05 | 47.04139 | 7.76590 | 36068 ft | 466 kts | 52° |
| 2026-05-08 08:05 | 47.08153 | 7.84041 | 36062 ft | 465 kts | 52° |
| 2026-05-08 08:06 | 47.12156 | 7.91508 | 36063 ft | 465 kts | 52° |
| 2026-05-08 08:06 | 47.15787 | 7.99341 | 36071 ft | 464 kts | 58° |
| 2026-05-08 08:07 | 47.19218 | 8.07387 | 36070 ft | 464 kts | 58° |
| 2026-05-08 08:07 | 47.22652 | 8.15441 | 36072 ft | 464 kts | 58° |
| 2026-05-08 08:08 | 47.26072 | 8.23502 | 36071 ft | 464 kts | 58° |
| 2026-05-08 08:08 | 47.29903 | 8.31127 | 36074 ft | 464 kts | 44° |
| 2026-05-08 08:09 | 47.35081 | 8.36750 | 36070 ft | 462 kts | 26° |
| 2026-05-08 08:09 | 47.40879 | 8.40835 | 36072 ft | 462 kts | 25° |
| 2026-05-08 08:10 | 47.46685 | 8.44949 | 36073 ft | 463 kts | 25° |
| 2026-05-08 08:10 | 47.52480 | 8.49078 | 36074 ft | 462 kts | 25° |
| 2026-05-08 08:11 | 47.58238 | 8.53164 | 36076 ft | 462 kts | 25° |
| 2026-05-08 08:11 | 47.64032 | 8.57288 | 36075 ft | 462 kts | 25° |
| 2026-05-08 08:12 | 47.69816 | 8.61442 | 36073 ft | 462 kts | 25° |
| 2026-05-08 08:12 | 47.75603 | 8.65590 | 36073 ft | 462 kts | 25° |
| 2026-05-08 08:13 | 47.81387 | 8.69738 | 36077 ft | 461 kts | 25° |
| 2026-05-08 08:13 | 47.87147 | 8.73885 | 36080 ft | 461 kts | 25° |
| 2026-05-08 08:14 | 47.92916 | 8.78062 | 36082 ft | 462 kts | 25° |
| 2026-05-08 08:14 | 47.98692 | 8.82249 | 36082 ft | 461 kts | 25° |
| 2026-05-08 08:15 | 48.04477 | 8.86440 | 36089 ft | 462 kts | 25° |
| 2026-05-08 08:15 | 48.09271 | 8.89921 | 36094 ft | 461 kts | 25° |
| 2026-05-08 08:16 | 48.15076 | 8.94020 | 36095 ft | 460 kts | 19° |
| 2026-05-08 08:16 | 48.21278 | 8.96051 | 36095 ft | 456 kts | 4° |
| 2026-05-08 08:17 | 48.27596 | 8.96973 | 36091 ft | 456 kts | 4° |